AirNav   BOSE A20 Aviation Headset
 
 1433 users online  

13K Lt. William M. Milliken Airport
Eureka, Kansas, USA

GOING TO EUREKA?


FAA INFORMATION EFFECTIVE 26 APRIL 2018

Location

FAA Identifier: 13K
Lat/Long: 37-51-05.8000N / 096-17-31.3000W
37-51.096667N / 096-17.521667W
37.8516111 / -96.2920278
(estimated)
Elevation: 1208.1 ft. / 368.2 m (surveyed)
Variation: 06E (1985)
From city: 2 miles N of EUREKA, KS
Time zone: UTC -5 (UTC -6 during Standard Time)
Zip code: 67045

Airport Operations

Airport use: Open to the public
Activation date: 07/1959
Control tower: no
ARTCC: KANSAS CITY CENTER
FSS: WICHITA FLIGHT SERVICE STATION
NOTAMs facility: ICT (NOTAM-D service available)
Attendance: 0800-1700
Wind indicator: lighted, WIND INDICATOR IS FADED.
Segmented circle: yes
Beacon: white-green (lighted land airport)
Operates sunset to sunrise.

Airport Communications

CTAF/UNICOM: 122.8
WX AWOS-3: 120.975 (620-583-5442)
  • APCH/DEP SERVICE PROVIDED BY KANSAS CITY ARTCC ON FREQS 120.2/323.2 (EMPORIA RCAG).

Nearby radio navigation aids

VOR radial/distance  VOR name  Freq  Var
EMPr187/27.4EMPORIA VORTAC112.8008E
CNUr287/35.8CHANUTE VOR/DME109.2005E

 
NDB name  Hdg/Dist  Freq  Var  ID
BOYD220/38.124505EUKL ..- -.- .-..

Airport Services

Fuel available: 100LL MOGAS
Parking: tiedowns
Airframe service: MAJOR
Powerplant service: MAJOR
Bottled oxygen: NONE
Bulk oxygen: NONE

Runway Information

Runway 18/36

Dimensions: 3504 x 60 ft. / 1068 x 18 m
Surface: asphalt, in good condition
Weight bearing capacity: 
Single wheel: 8.0
Runway edge lights: low intensity
Runway edge markings: NRS ARE FADED DUE TO AGE AND WEATHER.
Gradient: N
RUNWAY 18  RUNWAY 36
Latitude: 37-51.323765N37-50.756317N
Longitude: 096-17.419327W096-17.552978W
Elevation: 1206.4 ft.1195.6 ft.
Gradient: 0.3%0.3% UP
Traffic pattern: leftleft
Runway heading: 185 magnetic, 191 true005 magnetic, 011 true
Markings: numbers only, in poor conditionnumbers only, in poor condition
Visual slope indicator: 2-light PAPI on left (3.00 degrees glide path)2-light PAPI on left (3.00 degrees glide path)
Runway end identifier lights: nono
Touchdown point: yes, no lightsyes, no lights

Runway 8/26

Dimensions: 2146 x 55 ft. / 654 x 17 m
Surface: turf, in fair condition
Runway edge markings: WHITE TIRES MARK RY END.
Gradient: E
RUNWAY 8  RUNWAY 26
Latitude: 37-51.182243N37-51.197352N
Longitude: 096-17.802540W096-17.356937W
Elevation: 1194.6 ft.1208.1 ft.
Gradient: 0.6% UP0.6%
Traffic pattern: leftleft
Runway heading: 081 magnetic, 087 true261 magnetic, 267 true
Runway end identifier lights: nono
Touchdown point: yes, no lightsyes, no lights
Obstructions: 4 ft. fence, marked, 76 ft. from runway, 19:1 slope to clear
DELINEATED WITH WHITE PAINTED TIRES.
23 ft. pline, 502 ft. from runway, 21:1 slope to clear

Airport Ownership and Management from official FAA records

Ownership: Publicly-owned
Owner: CITY OF EUREKA
MEMORIAL HALL
EUREKA, KS 67045
Phone 620-583-6511
Manager: LARRY DUTTON
1667 P ROAD
EUREKA, KS 67045
Phone 620-583-7732

Airport Operational Statistics

Aircraft based on the field: 14
Single engine airplanes: 13
Helicopters: 1
    
Aircraft operations: avg 94/week *
80% local general aviation
20% transient general aviation
* for 12-month period ending 01 September 2017

Additional Remarks

A58-36 GROUND DROPS DOWN ABRUPTLY 85 FT FM END OF RY.
WILDLIFE ON & INVOF ARPT.
RY 18/36 NSTD LIRL; NON-BREAKABLE COUPLINGS & VARIES IN ELEV OVR 14 INCHES. RY 18 THLD LGTS ON GND; RY 36 NSTD THLD LGTS.

Instrument Procedures

NOTE: All procedures below are presented as PDF files. If you need a reader for these files, you should download the free Adobe Reader.

NOT FOR NAVIGATION. Please procure official charts for flight.
FAA instrument procedures published for use from 26 April 2018 at 901Z to 24 May 2018 at 0900Z.

 
IAPs - Instrument Approach Procedures
RNAV (GPS) RWY 18   download (186KB)
VOR/DME RWY 18   download (186KB)
NOTE: Special Take-Off Minimums/Departure Procedures apply **CHANGED**   download (213KB)

Other nearby airports with instrument procedures:

KEQA - El Dorado/Captain Jack Thomas Memorial Airport (25 nm W)
KEMP - Emporia Municipal Airport (29 nm N)
KUKL - Coffey County Airport (38 nm NE)
3AU - Augusta Municipal Airport (39 nm W)
1K1 - Lloyd Stearman Field Airport (39 nm W)
 
Loc | Ops | Rwys | IFR | FBO | Links
Com | Nav | Svcs | Stats | Notes

Kansas City Aviation Department
 
Area around 13K (Lt. William M. Milliken Airport)
 
Road maps at: MapQuest Bing Google
 
Aerial photo
WARNING: Photo may not be current or correct
Aerial photo of 13K (Lt. William M. Milliken Airport)
Photo by David Newcomer
Photo taken 17-Oct-2015
from 4,500 altitude looking southeast.

Do you have a better or more recent aerial photo of Lt. William M. Milliken Airport that you would like to share? If so, please send us your photo.

 
Sectional chart

 
Airport distance calculator
Flying to Lt. William M. Milliken Airport? Find the distance to fly.

From to 13K

Sunrise and sunset
Times for 21-May-2018
 Local
(UTC-5)
 Zulu
(UTC)
Morning civil twilight05:4210:42
Sunrise06:1111:11
Sunset20:3201:32
Evening civil twilight21:0202:02

Current date and time
Zulu (UTC)  21-May-2018 14:10:52
Local (UTC-5)  21-May-2018 09:10:52
 
METAR
KEMP 
29nm N 
211353Z AUTO 33008KT 9SM OVC009 14/12 A3010 RMK AO2 SLP192 T01390122 TSNO
K3AU 
39nm W 
211355Z AUTO 31003KT 7SM OVC006 14/13 A3013 RMK AO2
K1K1 
39nm W 
211355Z AUTO 33005KT 7SM OVC007 14/12 A3012 RMK AO2 T01390124
KCNU 
40nm E 
211352Z AUTO 31008KT 9SM OVC009 16/14 A3010 RMK AO2 SLP189 T01610144
KAAO 
44nm W 
211354Z AUTO 34007KT 10SM OVC007 15/13 A3011 RMK AO2 SLP193 T01500133
KBEC 
45nm W 
211355Z AUTO 00000KT 7SM OVC007 15/13 A3012 RMK AO2 T01510128
KEWK 
47nm W 
211356Z AUTO 00000KT 10SM OVC005 13/12 A3013 RMK AO2 SLP197 T01330122
KIDP 
48nm SE 
211355Z AUTO 03007KT 3SM BR OVC003 15/15 A3011 RMK AO2 VIS 1 3/4V3 1/2 T01520149
KIAB 
48nm W 
211356Z AUTO 36004KT 10SM FEW011 16/14 A3012 RMK AO2 SLP198 T01590136
KPPF 
49nm SE 
211352Z AUTO 02004KT 7SM OVC005 16/15 A3011 RMK AO2 SLP192 T01610150
TAF
KCNU 
40nm E 
211129Z 2112/2212 33005KT 3SM BR BKN002 FM211500 35004KT P6SM BKN020 FM211700 35006KT P6SM SCT035 FM211900 VRB03KT P6SM SKC
KIAB 
48nm W 
211000Z 2110/2216 34006KT 9999 SCT006 QNH3006INS BECMG 2111/2112 27006KT 9999 SKC QNH2994INS BECMG 2202/2203 15006KT 9999 SCT045 QNH2998INS TX28/2120Z TN12/2111Z
NOTAMs
Click for the latest NOTAMs
NOTAMs are issued by the DoD/FAA and will open in a separate window not controlled by AirNav.

 

 
 

FBO, Fuel Providers, and Aircraft Ground Support

  
 Business Name 
 
 Contact 
 
 Services / Description 
 
Fuel Prices
 
Comments
  
Captain D Aviation 620-583-7732
no information available

If you are affiliated with Captain D Aviation and would like to show here your services, contact info, web link, logo, and more, click here
100LL Mogas
FS $4.69 $3.31 
 Updated 09-May-2018
 
   write
FS=Full service
Update Fuel Prices
 

Would you like to see your business listed on this page?

 If your business provides an interesting product or service to pilots, flight crews, aircraft, or users of the Lt. William M. Milliken Airport, you should consider listing it here.  To start the listing process, click on the button below
 
Add a business
 

Other Pages about Lt. William M. Milliken Airport

Update a link
 
Copyright © AirNav, LLC. All rights reserved. Privacy Policy  Contact